createdAt,value
2023-04-18T00:02:18.824Z,9.40
2023-04-18T00:04:50.527Z,9.40
2023-04-18T00:07:21.826Z,9.38
2023-04-18T00:09:52.545Z,9.37
2023-04-18T00:12:23.274Z,9.35
2023-04-18T00:14:53.983Z,9.32
2023-04-18T00:17:26.721Z,9.30
2023-04-18T00:19:58.457Z,9.30
2023-04-18T00:22:29.195Z,9.31
2023-04-18T00:24:59.867Z,9.31
2023-04-18T00:27:30.588Z,9.31
2023-04-18T00:30:01.381Z,9.32
2023-04-18T00:32:32.255Z,9.33
2023-04-18T00:35:04.197Z,9.34
2023-04-18T00:37:34.919Z,9.34
2023-04-18T00:40:06.370Z,9.34
2023-04-18T00:42:37.066Z,9.34
2023-04-18T00:45:09.496Z,9.33
2023-04-18T00:47:41.248Z,9.34
2023-04-18T00:50:14.381Z,9.33
2023-04-18T00:52:46.941Z,9.33
2023-04-18T00:55:19.364Z,9.32
2023-04-18T00:57:50.058Z,9.32
2023-04-18T01:00:21.228Z,9.32
2023-04-18T01:02:53.371Z,9.33
2023-04-18T01:05:24.655Z,9.33
2023-04-18T01:07:58.819Z,9.33
2023-04-18T01:10:29.931Z,9.33
2023-04-18T01:13:18.098Z,9.31
2023-04-18T01:15:50.664Z,9.30
2023-04-18T01:18:22.660Z,9.29
2023-04-18T01:20:54.858Z,9.28
2023-04-18T01:23:26.010Z,9.25
2023-04-18T01:25:56.772Z,9.22
2023-04-18T01:28:29.974Z,9.21
2023-04-18T01:31:01.039Z,9.20
2023-04-18T01:33:32.377Z,9.19
2023-04-18T01:36:03.211Z,9.19
2023-04-18T01:38:34.909Z,9.19
2023-04-18T01:41:05.639Z,9.18
2023-04-18T01:43:36.373Z,9.18
2023-04-18T01:46:07.585Z,9.17
2023-04-18T01:48:39.138Z,9.17
2023-04-18T01:51:10.435Z,9.15
2023-04-18T01:53:42.159Z,9.15
2023-04-18T01:56:13.225Z,9.16
2023-04-18T01:58:43.977Z,9.18
2023-04-18T02:01:16.362Z,9.18
2023-04-18T02:03:47.340Z,9.18
2023-04-18T02:06:18.334Z,9.19
2023-04-18T02:08:51.523Z,9.19
2023-04-18T02:11:22.217Z,9.18
2023-04-18T02:13:53.345Z,9.18
2023-04-18T02:16:24.096Z,9.16
2023-04-18T02:18:54.808Z,9.16
2023-04-18T02:21:25.556Z,9.17
2023-04-18T02:23:56.248Z,9.18
2023-04-18T02:26:27.014Z,9.18
2023-04-18T02:29:01.553Z,9.20
2023-04-18T02:31:33.304Z,9.20
2023-04-18T02:34:04.015Z,9.22
2023-04-18T02:36:35.484Z,9.21
2023-04-18T02:39:06.724Z,9.21
2023-04-18T02:41:39.412Z,9.22
2023-04-18T02:44:11.246Z,9.23
2023-04-18T02:46:46.003Z,9.23
2023-04-18T02:49:16.906Z,9.21
2023-04-18T02:51:48.725Z,9.21
2023-04-18T02:54:20.026Z,9.21
2023-04-18T02:57:11.074Z,9.22
2023-04-18T02:59:59.796Z,9.22
2023-04-18T03:02:42.628Z,9.21
2023-04-18T03:05:24.924Z,9.20
2023-04-18T03:07:57.518Z,9.19
2023-04-18T03:10:28.415Z,9.18
2023-04-18T03:12:59.682Z,9.18
2023-04-18T03:15:32.202Z,9.17
2023-04-18T03:18:03.148Z,9.18
2023-04-18T03:20:37.328Z,9.16
2023-04-18T03:23:10.291Z,9.15
2023-04-18T03:25:41.023Z,9.12
2023-04-18T03:28:11.912Z,9.09
2023-04-18T03:30:43.904Z,9.08
2023-04-18T03:33:17.209Z,9.07
2023-04-18T03:35:49.343Z,9.06
2023-04-18T03:38:20.083Z,9.04
2023-04-18T03:40:50.950Z,9.03
2023-04-18T03:43:27.178Z,9.00
2023-04-18T03:45:57.890Z,9.01
2023-04-18T03:48:29.882Z,9.03
2023-04-18T03:51:02.969Z,9.06
2023-04-18T03:53:34.729Z,9.08
2023-04-18T03:56:05.590Z,9.10
2023-04-18T03:58:48.946Z,9.11
2023-04-18T04:01:20.113Z,9.13
2023-04-18T04:03:51.264Z,9.12
2023-04-18T04:06:22.120Z,9.13
2023-04-18T04:08:52.909Z,9.16
2023-04-18T04:11:26.840Z,9.18
2023-04-18T04:13:57.768Z,9.18
2023-04-18T04:16:31.859Z,9.18
2023-04-18T04:19:03.358Z,9.19
2023-04-18T04:21:38.432Z,9.19
2023-04-18T04:24:10.452Z,9.19
2023-04-18T04:26:44.261Z,9.20
2023-04-18T04:29:19.134Z,9.20
2023-04-18T04:31:52.159Z,9.19
2023-04-18T04:34:35.880Z,9.21
2023-04-18T04:37:09.249Z,9.22
2023-04-18T04:39:46.313Z,9.24
2023-04-18T04:42:56.182Z,9.26
2023-04-18T04:45:33.198Z,9.27
2023-04-18T04:48:04.240Z,9.28
2023-04-18T04:50:38.545Z,9.30
2023-04-18T04:53:11.820Z,9.33
2023-04-18T04:55:42.987Z,9.35
2023-04-18T04:58:13.776Z,9.38
2023-04-18T05:01:09.259Z,9.43
2023-04-18T05:03:41.412Z,9.47
2023-04-18T05:06:12.477Z,9.50
2023-04-18T05:08:43.342Z,9.53
2023-04-18T05:11:14.037Z,9.56
2023-04-18T05:13:44.952Z,9.59
2023-04-18T05:16:15.723Z,9.61
2023-04-18T05:18:46.505Z,9.64
2023-04-18T05:21:17.130Z,9.68
2023-04-18T05:23:47.891Z,9.72
2023-04-18T05:26:18.810Z,9.77
2023-04-18T05:28:50.299Z,9.84
2023-04-18T05:31:21.061Z,9.91
2023-04-18T05:33:51.726Z,10.00
2023-04-18T05:36:22.921Z,10.09
2023-04-18T05:38:53.708Z,10.20
2023-04-18T05:41:24.425Z,10.29
2023-04-18T05:44:04.873Z,10.39
2023-04-18T05:46:36.510Z,10.49
2023-04-18T05:49:07.261Z,10.56
2023-04-18T05:51:37.968Z,10.61
2023-04-18T05:54:08.687Z,10.67
2023-04-18T05:56:40.119Z,10.70
2023-04-18T05:59:10.822Z,10.71
2023-04-18T06:01:41.506Z,10.71
2023-04-18T06:04:12.473Z,10.72
2023-04-18T06:06:43.483Z,10.78
2023-04-18T06:09:14.263Z,10.85
2023-04-18T06:11:45.071Z,10.91
2023-04-18T06:14:16.052Z,10.96
2023-04-18T06:16:47.189Z,11.05
2023-04-18T06:19:17.947Z,11.11
2023-04-18T06:21:49.372Z,11.15
2023-04-18T06:24:20.172Z,11.18
2023-04-18T06:26:50.835Z,11.21
2023-04-18T06:29:23.232Z,11.30
2023-04-18T06:31:54.048Z,11.51
2023-04-18T06:34:24.746Z,11.69
2023-04-18T06:36:55.860Z,11.81
2023-04-18T06:39:28.005Z,11.85
2023-04-18T06:41:59.912Z,11.82
2023-04-18T06:44:32.696Z,11.79
2023-04-18T06:47:03.645Z,11.73
2023-04-18T06:49:34.413Z,11.67
2023-04-18T06:52:07.684Z,11.63
2023-04-18T06:54:38.403Z,11.62
2023-04-18T06:57:09.310Z,11.61
2023-04-18T06:59:41.439Z,11.60
2023-04-18T07:02:12.229Z,11.60
2023-04-18T07:04:43.003Z,11.59
2023-04-18T07:07:13.835Z,11.58
2023-04-18T07:09:44.934Z,11.61
2023-04-18T07:12:15.636Z,11.63
2023-04-18T07:14:46.277Z,11.68
2023-04-18T07:17:17.901Z,11.69
2023-04-18T07:19:48.895Z,11.71
2023-04-18T07:22:19.603Z,11.71
2023-04-18T07:24:50.294Z,11.72
2023-04-18T07:27:20.986Z,11.78
2023-04-18T07:29:51.756Z,11.85
2023-04-18T07:32:22.475Z,11.94
2023-04-18T07:34:53.834Z,12.06
2023-04-18T07:37:26.570Z,12.22
2023-04-18T07:40:00.560Z,12.40
2023-04-18T07:42:31.219Z,12.59
2023-04-18T07:45:02.036Z,12.78
2023-04-18T07:47:33.463Z,12.95
2023-04-18T07:50:05.158Z,13.14
2023-04-18T07:52:36.797Z,13.43
2023-04-18T07:55:10.025Z,13.93
2023-04-18T07:57:41.167Z,14.56
2023-04-18T08:00:14.808Z,15.12
2023-04-18T08:02:45.825Z,15.62
2023-04-18T08:05:16.905Z,16.08
2023-04-18T08:07:47.610Z,16.57
2023-04-18T08:10:18.420Z,16.94
2023-04-18T08:12:49.075Z,17.18
2023-04-18T08:15:19.811Z,17.51
2023-04-18T08:17:51.607Z,17.90
2023-04-18T08:20:22.742Z,18.29
2023-04-18T08:23:06.278Z,18.74
2023-04-18T08:25:38.682Z,19.22
2023-04-18T08:28:09.666Z,19.51
2023-04-18T08:30:40.427Z,19.78
2023-04-18T08:33:11.171Z,20.04
2023-04-18T08:35:41.913Z,20.30
2023-04-18T08:38:13.440Z,20.56
2023-04-18T08:40:45.680Z,20.70
2023-04-18T08:43:17.260Z,20.89
2023-04-18T08:45:48.579Z,20.92
2023-04-18T08:48:19.835Z,20.94
2023-04-18T08:50:51.380Z,20.94
2023-04-18T08:53:22.087Z,21.03
2023-04-18T08:56:00.429Z,21.14
2023-04-18T08:58:32.583Z,21.30
2023-04-18T09:01:03.544Z,21.52
2023-04-18T09:03:40.775Z,21.63
2023-04-18T09:06:16.303Z,21.68
2023-04-18T09:09:11.094Z,21.72
2023-04-18T09:11:42.566Z,21.89
2023-04-18T09:14:26.612Z,21.94
2023-04-18T09:16:57.386Z,21.85
2023-04-18T09:19:29.197Z,21.69
2023-04-18T09:22:04.628Z,21.70
2023-04-18T09:24:35.664Z,21.72
2023-04-18T09:27:14.341Z,21.68
2023-04-18T09:29:49.478Z,21.65
2023-04-18T09:32:29.610Z,21.67
2023-04-18T09:35:05.008Z,21.75
2023-04-18T09:37:36.157Z,21.84
2023-04-18T09:40:19.209Z,21.85
2023-04-18T09:42:52.132Z,21.73
2023-04-18T09:45:23.907Z,21.61
2023-04-18T09:47:55.897Z,21.44
2023-04-18T09:50:26.750Z,21.23
2023-04-18T09:52:58.406Z,20.94
2023-04-18T09:55:31.555Z,20.70
2023-04-18T09:58:05.040Z,20.49
2023-04-18T10:00:38.561Z,20.24
2023-04-18T10:03:11.769Z,20.01
2023-04-18T10:05:43.621Z,19.83
2023-04-18T10:08:16.119Z,19.64
2023-04-18T10:10:47.218Z,19.44
2023-04-18T10:13:19.252Z,19.26
2023-04-18T10:15:52.490Z,19.10
2023-04-18T10:18:25.718Z,18.95
2023-04-18T10:21:04.274Z,18.74
2023-04-18T10:23:39.969Z,18.53
2023-04-18T10:26:12.055Z,18.38
2023-04-18T10:28:54.788Z,18.26
2023-04-18T10:31:27.218Z,18.17
2023-04-18T10:34:05.170Z,18.10
2023-04-18T10:36:36.785Z,18.05
2023-04-18T10:39:25.679Z,17.99
2023-04-18T10:41:56.462Z,18.00
2023-04-18T10:44:27.672Z,18.03
2023-04-18T10:47:24.022Z,18.04
2023-04-18T10:50:01.234Z,18.00
2023-04-18T10:52:32.567Z,17.95
2023-04-18T10:55:16.580Z,18.00
2023-04-18T10:57:48.577Z,17.99
2023-04-18T11:00:21.799Z,18.00
2023-04-18T11:02:56.082Z,17.96
2023-04-18T11:05:29.425Z,17.88
2023-04-18T11:08:00.258Z,17.75
2023-04-18T11:10:31.139Z,17.58
2023-04-18T11:13:04.864Z,17.43
2023-04-18T11:15:40.020Z,17.34
2023-04-18T11:18:10.274Z,17.25
2023-04-18T11:20:49.198Z,17.23
2023-04-18T11:23:25.121Z,17.22
2023-04-18T11:25:58.337Z,17.20
2023-04-18T11:28:29.745Z,17.17
2023-04-18T11:31:04.054Z,17.18
2023-04-18T11:33:37.799Z,17.21
2023-04-18T11:36:09.725Z,17.21
2023-04-18T11:38:43.007Z,17.25
2023-04-18T11:41:16.718Z,17.28
2023-04-18T11:43:47.876Z,17.32
2023-04-18T11:46:34.911Z,17.33
2023-04-18T11:49:08.055Z,17.31
2023-04-18T11:51:51.813Z,17.29
2023-04-18T11:54:43.370Z,17.25
2023-04-18T11:57:29.061Z,17.22
2023-04-18T12:00:06.985Z,17.17
2023-04-18T12:02:44.677Z,17.11
2023-04-18T12:05:25.750Z,17.07
2023-04-18T12:07:56.999Z,17.00
2023-04-18T12:10:29.886Z,16.91
2023-04-18T12:13:01.248Z,16.84
2023-04-18T12:15:33.696Z,16.77
2023-04-18T12:18:08.326Z,16.68
2023-04-18T12:20:46.437Z,16.64
2023-04-18T12:26:24.259Z,16.63
2023-04-18T12:28:55.119Z,16.61
2023-04-18T12:31:28.041Z,16.62
2023-04-18T12:34:00.199Z,16.64
2023-04-18T12:36:30.958Z,16.66
2023-04-18T12:39:01.766Z,16.70
2023-04-18T12:41:32.480Z,16.74
2023-04-18T12:44:03.679Z,16.79
2023-04-18T12:46:35.822Z,16.82
2023-04-18T12:49:06.918Z,16.85
2023-04-18T12:51:37.840Z,16.91
2023-04-18T12:54:11.534Z,16.99
2023-04-18T12:56:42.449Z,17.06
2023-04-18T12:59:13.445Z,17.12
2023-04-18T13:01:44.608Z,17.16
2023-04-18T13:04:16.042Z,17.14
2023-04-18T13:06:47.031Z,17.12
2023-04-18T13:09:18.634Z,17.12
2023-04-18T13:12:02.358Z,17.15
2023-04-18T13:14:33.197Z,17.17
2023-04-18T13:17:04.313Z,17.18
2023-04-18T13:19:35.287Z,17.21
2023-04-18T13:22:06.088Z,17.23
2023-04-18T13:24:37.666Z,17.23
2023-04-18T13:27:11.481Z,17.22
2023-04-18T13:29:44.167Z,17.20
2023-04-18T13:32:15.305Z,17.19
2023-04-18T13:34:48.846Z,17.18
2023-04-18T13:37:19.928Z,17.21
2023-04-18T13:39:50.888Z,17.21
2023-04-18T13:45:11.596Z,17.19
2023-04-18T13:47:42.911Z,17.19
2023-04-18T13:50:14.013Z,17.21
2023-04-18T13:52:44.972Z,17.22
2023-04-18T13:55:16.235Z,17.24
2023-04-18T13:57:47.377Z,17.23
2023-04-18T14:00:20.511Z,17.24
2023-04-18T14:02:51.971Z,17.23
2023-04-18T14:05:23.058Z,17.23
2023-04-18T14:07:53.882Z,17.22
2023-04-18T14:10:24.742Z,17.22
2023-04-18T14:12:55.620Z,17.19
2023-04-18T14:18:50.938Z,17.19
2023-04-18T14:21:21.588Z,17.16
2023-04-18T14:23:54.023Z,17.14
2023-04-18T14:26:24.976Z,17.15
2023-04-18T14:28:55.641Z,17.14
2023-04-18T14:31:28.575Z,17.12
2023-04-18T14:33:59.946Z,17.10
2023-04-18T14:36:31.043Z,17.08
2023-04-18T14:39:01.840Z,17.09
2023-04-18T14:41:33.043Z,17.08
2023-04-18T14:44:04.294Z,17.05
2023-04-18T14:46:35.025Z,17.01
2023-04-18T14:49:05.916Z,16.99
2023-04-18T14:51:36.790Z,16.95
2023-04-18T14:54:07.575Z,16.93
2023-04-18T14:56:38.309Z,16.90
2023-04-18T14:59:09.058Z,16.87
2023-04-18T15:01:41.616Z,16.82
2023-04-18T15:04:13.286Z,16.75
2023-04-18T15:06:44.440Z,16.70
2023-04-18T15:09:16.536Z,16.66
2023-04-18T15:11:49.605Z,16.64
2023-04-18T15:14:20.276Z,16.61
2023-04-18T15:16:52.900Z,16.59
2023-04-18T15:19:23.640Z,16.57
2023-04-18T15:21:54.676Z,16.53
2023-04-18T15:24:26.436Z,16.48
2023-04-18T15:26:58.757Z,16.45
2023-04-18T15:29:29.582Z,16.42
2023-04-18T15:32:01.621Z,16.38
2023-04-18T15:34:32.462Z,16.35
2023-04-18T15:37:04.113Z,16.31
2023-04-18T15:39:34.885Z,16.29
2023-04-18T15:42:05.575Z,16.23
2023-04-18T15:44:36.212Z,16.19
2023-04-18T15:47:08.199Z,16.16
2023-04-18T15:49:38.957Z,16.11
2023-04-18T15:52:09.645Z,16.07
2023-04-18T15:54:42.971Z,16.05
2023-04-18T15:57:13.760Z,16.01
2023-04-18T15:59:44.569Z,15.99
2023-04-18T16:02:15.383Z,15.98
2023-04-18T16:04:46.480Z,15.97
2023-04-18T16:07:17.596Z,15.96
2023-04-18T16:09:48.438Z,15.93
2023-04-18T16:12:19.172Z,15.92
2023-04-18T16:14:50.766Z,15.92
2023-04-18T16:17:21.851Z,15.92
2023-04-18T16:20:20.974Z,15.93
2023-04-18T16:22:55.198Z,15.93
2023-04-18T16:25:26.486Z,15.92
2023-04-18T16:27:57.447Z,15.93
2023-04-18T16:30:28.169Z,15.94
2023-04-18T16:32:59.162Z,15.93
2023-04-18T16:35:30.200Z,15.91
2023-04-18T16:38:00.964Z,15.91
2023-04-18T16:40:34.958Z,15.88
2023-04-18T16:43:05.653Z,15.85
2023-04-18T16:45:39.140Z,15.84
2023-04-18T16:48:12.606Z,15.82
2023-04-18T16:50:45.643Z,15.78
2023-04-18T16:53:16.901Z,15.76
2023-04-18T16:55:47.840Z,15.74
2023-04-18T16:58:29.740Z,15.70
2023-04-18T17:01:02.217Z,15.67
2023-04-18T17:03:34.934Z,15.63
2023-04-18T17:06:07.121Z,15.59
2023-04-18T17:08:38.019Z,15.55
2023-04-18T17:11:08.940Z,15.51
2023-04-18T17:13:39.728Z,15.48
2023-04-18T17:16:11.140Z,15.45
2023-04-18T17:18:43.014Z,15.42
2023-04-18T17:21:14.292Z,15.38
2023-04-18T17:23:45.023Z,15.37
2023-04-18T17:26:16.055Z,15.33
2023-04-18T17:28:46.705Z,15.30
2023-04-18T17:31:17.622Z,15.27
2023-04-18T17:33:50.599Z,15.23
2023-04-18T17:36:21.342Z,15.19
2023-04-18T17:38:52.026Z,15.16
2023-04-18T17:41:23.797Z,15.13
2023-04-18T17:43:54.513Z,15.09
2023-04-18T17:46:25.237Z,15.05
2023-04-18T17:48:56.039Z,15.01
2023-04-18T17:51:27.402Z,14.97
2023-04-18T17:53:58.401Z,14.94
2023-04-18T17:56:30.581Z,14.90
2023-04-18T17:59:02.685Z,14.87
2023-04-18T18:01:34.789Z,14.86
2023-04-18T18:04:05.920Z,14.82
2023-04-18T18:06:37.242Z,14.79
2023-04-18T18:09:08.240Z,14.77
2023-04-18T18:11:39.998Z,14.74
2023-04-18T18:14:10.858Z,14.72
2023-04-18T18:16:42.704Z,14.69
2023-04-18T18:19:14.746Z,14.66
2023-04-18T18:21:47.321Z,14.63
2023-04-18T18:24:18.758Z,14.59
2023-04-18T18:26:51.520Z,14.57
2023-04-18T18:29:23.274Z,14.52
2023-04-18T18:31:54.721Z,14.50
2023-04-18T18:34:27.081Z,14.47
2023-04-18T18:36:58.341Z,14.44
2023-04-18T18:39:29.116Z,14.41
2023-04-18T18:41:59.937Z,14.38
2023-04-18T18:44:30.678Z,14.36
2023-04-18T18:47:02.211Z,14.32
2023-04-18T18:49:33.025Z,14.31
2023-04-18T18:52:05.382Z,14.29
2023-04-18T18:54:36.060Z,14.26
2023-04-18T18:57:08.513Z,14.24
2023-04-18T18:59:39.375Z,14.22
2023-04-18T19:02:10.359Z,14.21
2023-04-18T19:04:41.182Z,14.19
2023-04-18T19:07:13.062Z,14.16
2023-04-18T19:09:43.877Z,14.14
2023-04-18T19:12:14.574Z,14.11
2023-04-18T19:14:47.268Z,14.07
2023-04-18T19:17:22.118Z,14.04
2023-04-18T19:19:53.578Z,14.03
2023-04-18T19:22:25.275Z,14.01
2023-04-18T19:24:56.445Z,13.98
2023-04-18T19:27:27.864Z,13.96
2023-04-18T19:29:59.116Z,13.94
2023-04-18T19:32:31.077Z,13.91
2023-04-18T19:35:02.292Z,13.89
2023-04-18T19:37:33.024Z,13.87
2023-04-18T19:40:04.519Z,13.85
2023-04-18T19:42:35.488Z,13.82
2023-04-18T19:45:07.824Z,13.79
2023-04-18T19:47:38.644Z,13.77
2023-04-18T19:50:11.749Z,13.72
2023-04-18T19:52:42.682Z,13.68
2023-04-18T19:55:14.052Z,13.64
2023-04-18T19:57:45.019Z,13.60
2023-04-18T20:00:17.431Z,13.57
2023-04-18T20:02:48.747Z,13.52
2023-04-18T20:05:19.845Z,13.47
2023-04-18T20:07:50.900Z,13.45
2023-04-18T20:10:23.328Z,13.42
2023-04-18T20:12:53.982Z,13.39
2023-04-18T20:15:24.793Z,13.38
2023-04-18T20:17:55.553Z,13.36
2023-04-18T20:20:26.618Z,13.33
2023-04-18T20:22:57.385Z,13.29
2023-04-18T20:25:28.072Z,13.26
2023-04-18T20:27:58.839Z,13.23
2023-04-18T20:30:29.915Z,13.19
2023-04-18T20:33:00.713Z,13.18
2023-04-18T20:35:31.574Z,13.17
2023-04-18T20:38:02.356Z,13.14
2023-04-18T20:40:33.360Z,13.11
2023-04-18T20:43:04.518Z,13.07
2023-04-18T20:45:37.461Z,13.02
2023-04-18T20:48:08.779Z,12.99
2023-04-18T20:50:41.105Z,12.96
2023-04-18T20:53:12.571Z,12.92
2023-04-18T20:55:43.277Z,12.89
2023-04-18T20:58:14.668Z,12.86
2023-04-18T21:00:46.293Z,12.84
2023-04-18T21:03:18.190Z,12.81
2023-04-18T21:05:49.134Z,12.78
2023-04-18T21:08:20.622Z,12.77
2023-04-18T21:10:51.794Z,12.74
2023-04-18T21:13:22.931Z,12.72
2023-04-18T21:15:53.728Z,12.68
2023-04-18T21:18:24.724Z,12.65
2023-04-18T21:20:55.873Z,12.61
2023-04-18T21:23:27.026Z,12.56
2023-04-18T21:25:58.164Z,12.52
2023-04-18T21:28:29.010Z,12.49
2023-04-18T21:30:59.817Z,12.47
2023-04-18T21:33:30.672Z,12.44
2023-04-18T21:36:01.588Z,12.43
2023-04-18T21:38:32.624Z,12.40
2023-04-18T21:41:03.896Z,12.38
2023-04-18T21:43:35.153Z,12.37
2023-04-18T21:46:06.147Z,12.35
2023-04-18T21:48:40.306Z,12.33
2023-04-18T21:51:11.653Z,12.30
2023-04-18T21:53:53.059Z,12.28
2023-04-18T21:56:24.065Z,12.26
2023-04-18T21:58:55.013Z,12.25
2023-04-18T22:01:33.766Z,12.23
2023-04-18T22:04:05.340Z,12.19
2023-04-18T22:06:36.593Z,12.16
2023-04-18T22:09:08.362Z,12.14
2023-04-18T22:11:39.335Z,12.12
2023-04-18T22:14:10.968Z,12.10
2023-04-18T22:16:42.488Z,12.09
2023-04-18T22:19:15.097Z,12.08
2023-04-18T22:21:46.031Z,12.07
2023-04-18T22:24:18.389Z,12.05
2023-04-18T22:26:49.359Z,12.04
2023-04-18T22:29:20.272Z,12.02
2023-04-18T22:31:51.255Z,12.00
2023-04-18T22:34:22.305Z,11.96
2023-04-18T22:36:53.042Z,11.92
2023-04-18T22:39:27.042Z,11.87
2023-04-18T22:41:57.781Z,11.83
2023-04-18T22:44:29.461Z,11.80
2023-04-18T22:47:00.270Z,11.74
2023-04-18T22:49:31.210Z,11.70
2023-04-18T22:52:02.093Z,11.68
2023-04-18T22:54:32.978Z,11.66
2023-04-18T22:57:03.942Z,11.63
2023-04-18T22:59:34.994Z,11.59
2023-04-18T23:02:05.799Z,11.56
2023-04-18T23:04:36.777Z,11.53
2023-04-18T23:07:07.562Z,11.49
2023-04-18T23:09:38.288Z,11.44
2023-04-18T23:12:09.315Z,11.40
2023-04-18T23:14:41.882Z,11.38
2023-04-18T23:17:12.596Z,11.37
2023-04-18T23:19:45.167Z,11.34
2023-04-18T23:22:15.988Z,11.31
2023-04-18T23:24:46.747Z,11.28
2023-04-18T23:27:17.664Z,11.24
2023-04-18T23:29:49.752Z,11.20
2023-04-18T23:32:20.409Z,11.16
2023-04-18T23:34:51.269Z,11.12
2023-04-18T23:37:21.980Z,11.09
2023-04-18T23:39:52.654Z,11.04
2023-04-18T23:42:23.453Z,11.00
2023-04-18T23:44:54.645Z,10.98
2023-04-18T23:47:25.562Z,10.95
2023-04-18T23:49:56.349Z,10.92
2023-04-18T23:52:27.042Z,10.90
2023-04-18T23:54:59.733Z,10.89
2023-04-18T23:57:30.450Z,10.87
